sensor_id;sensor_type;location;lat;lon;timestamp;pressure;altitude;pressure_sealevel;temperature;humidity
57628;BME280;43451;49.060;10.616;2023-04-01T00:01:43;95353.66;;;7.48;100.00
57628;BME280;43451;49.060;10.616;2023-04-01T00:04:09;95356.59;;;7.30;100.00
57628;BME280;43451;49.060;10.616;2023-04-01T00:06:34;95356.78;;;7.47;100.00
57628;BME280;43451;49.060;10.616;2023-04-01T00:08:59;95352.47;;;7.53;100.00
57628;BME280;43451;49.060;10.616;2023-04-01T00:11:25;95345.19;;;7.50;100.00
57628;BME280;43451;49.060;10.616;2023-04-01T00:13:52;95345.50;;;7.55;100.00
57628;BME280;43451;49.060;10.616;2023-04-01T00:16:17;95343.28;;;7.47;100.00
57628;BME280;43451;49.060;10.616;2023-04-01T00:18:42;95340.22;;;7.44;100.00
57628;BME280;43451;49.060;10.616;2023-04-01T00:21:08;95340.09;;;7.55;100.00
57628;BME280;43451;49.060;10.616;2023-04-01T00:23:33;95347.16;;;7.46;100.00
57628;BME280;43451;49.060;10.616;2023-04-01T00:25:59;95340.22;;;7.44;100.00
57628;BME280;43451;49.060;10.616;2023-04-01T00:28:25;95339.53;;;7.37;100.00
57628;BME280;43451;49.060;10.616;2023-04-01T00:30:51;95337.94;;;7.43;100.00
57628;BME280;43451;49.060;10.616;2023-04-01T00:33:16;95326.56;;;7.25;100.00
57628;BME280;43451;49.060;10.616;2023-04-01T00:35:42;95340.38;;;7.30;100.00
57628;BME280;43451;49.060;10.616;2023-04-01T00:38:07;95337.03;;;7.19;100.00
57628;BME280;43451;49.060;10.616;2023-04-01T00:40:43;95338.16;;;7.21;100.00
57628;BME280;43451;49.060;10.616;2023-04-01T00:43:14;95340.34;;;7.34;100.00
57628;BME280;43451;49.060;10.616;2023-04-01T00:45:40;95339.38;;;7.17;100.00
57628;BME280;43451;49.060;10.616;2023-04-01T00:50:35;95341.81;;;7.08;100.00
57628;BME280;43451;49.060;10.616;2023-04-01T00:53:02;95338.56;;;6.86;100.00
57628;BME280;43451;49.060;10.616;2023-04-01T00:55:28;95343.03;;;7.00;100.00
57628;BME280;43451;49.060;10.616;2023-04-01T00:57:55;95336.19;;;6.91;100.00
57628;BME280;43451;49.060;10.616;2023-04-01T01:00:22;95342.22;;;7.03;100.00
57628;BME280;43451;49.060;10.616;2023-04-01T01:02:47;95344.00;;;6.79;100.00
57628;BME280;43451;49.060;10.616;2023-04-01T01:05:15;95343.47;;;6.94;100.00
57628;BME280;43451;49.060;10.616;2023-04-01T01:10:38;95336.53;;;6.93;100.00
57628;BME280;43451;49.060;10.616;2023-04-01T01:15:58;95332.00;;;6.83;100.00
57628;BME280;43451;49.060;10.616;2023-04-01T01:18:40;95328.59;;;6.79;100.00
57628;BME280;43451;49.060;10.616;2023-04-01T01:26:24;95328.97;;;6.78;100.00
57628;BME280;43451;49.060;10.616;2023-04-01T01:36:26;95316.19;;;6.85;100.00
57628;BME280;43451;49.060;10.616;2023-04-01T01:38:53;95314.69;;;6.81;100.00
57628;BME280;43451;49.060;10.616;2023-04-01T01:41:20;95309.31;;;6.77;100.00
57628;BME280;43451;49.060;10.616;2023-04-01T01:43:47;95313.50;;;6.85;100.00
57628;BME280;43451;49.060;10.616;2023-04-01T01:46:15;95311.59;;;6.82;100.00
57628;BME280;43451;49.060;10.616;2023-04-01T01:48:42;95307.97;;;6.96;100.00
57628;BME280;43451;49.060;10.616;2023-04-01T01:51:08;95311.59;;;6.79;100.00
57628;BME280;43451;49.060;10.616;2023-04-01T01:53:34;95318.06;;;6.92;100.00
57628;BME280;43451;49.060;10.616;2023-04-01T01:55:59;95318.44;;;6.90;100.00
57628;BME280;43451;49.060;10.616;2023-04-01T01:58:39;95303.78;;;6.91;100.00
57628;BME280;43451;49.060;10.616;2023-04-01T02:01:29;95320.09;;;7.15;100.00
57628;BME280;43451;49.060;10.616;2023-04-01T02:03:53;95310.75;;;6.89;100.00
57628;BME280;43451;49.060;10.616;2023-04-01T02:06:23;95300.34;;;6.87;100.00
57628;BME280;43451;49.060;10.616;2023-04-01T02:08:51;95299.75;;;6.72;100.00
57628;BME280;43451;49.060;10.616;2023-04-01T02:11:19;95307.53;;;6.63;100.00
57628;BME280;43451;49.060;10.616;2023-04-01T02:16:34;95316.41;;;6.64;100.00
57628;BME280;43451;49.060;10.616;2023-04-01T02:19:01;95317.84;;;6.72;100.00
57628;BME280;43451;49.060;10.616;2023-04-01T02:21:32;95312.41;;;6.79;100.00
57628;BME280;43451;49.060;10.616;2023-04-01T02:24:02;95324.28;;;6.85;100.00
57628;BME280;43451;49.060;10.616;2023-04-01T02:26:30;95326.72;;;6.72;100.00
57628;BME280;43451;49.060;10.616;2023-04-01T02:28:55;95323.66;;;6.70;100.00
57628;BME280;43451;49.060;10.616;2023-04-01T02:31:22;95325.00;;;6.89;100.00
57628;BME280;43451;49.060;10.616;2023-04-01T02:33:48;95321.50;;;6.92;100.00
57628;BME280;43451;49.060;10.616;2023-04-01T02:36:14;95317.56;;;7.01;100.00
57628;BME280;43451;49.060;10.616;2023-04-01T02:38:40;95331.72;;;7.12;100.00
57628;BME280;43451;49.060;10.616;2023-04-01T02:41:06;95323.69;;;7.05;100.00
57628;BME280;43451;49.060;10.616;2023-04-01T02:43:32;95319.81;;;7.06;100.00
57628;BME280;43451;49.060;10.616;2023-04-01T02:45:57;95324.63;;;6.87;100.00
57628;BME280;43451;49.060;10.616;2023-04-01T02:48:22;95331.59;;;6.88;100.00
57628;BME280;43451;49.060;10.616;2023-04-01T02:50:48;95326.69;;;6.76;100.00
57628;BME280;43451;49.060;10.616;2023-04-01T02:53:13;95329.75;;;6.78;100.00
57628;BME280;43451;49.060;10.616;2023-04-01T02:55:39;95327.75;;;6.86;100.00
57628;BME280;43451;49.060;10.616;2023-04-01T02:58:04;95327.34;;;6.87;100.00
57628;BME280;43451;49.060;10.616;2023-04-01T03:00:29;95333.94;;;6.83;100.00
57628;BME280;43451;49.060;10.616;2023-04-01T03:02:55;95330.63;;;6.68;100.00
57628;BME280;43451;49.060;10.616;2023-04-01T03:05:21;95345.69;;;6.62;100.00
57628;BME280;43451;49.060;10.616;2023-04-01T03:07:47;95351.34;;;6.78;100.00
57628;BME280;43451;49.060;10.616;2023-04-01T03:10:12;95344.41;;;6.77;100.00
57628;BME280;43451;49.060;10.616;2023-04-01T03:12:38;95342.31;;;6.95;100.00
57628;BME280;43451;49.060;10.616;2023-04-01T03:15:03;95340.91;;;6.80;100.00
57628;BME280;43451;49.060;10.616;2023-04-01T03:17:29;95347.16;;;6.73;100.00
57628;BME280;43451;49.060;10.616;2023-04-01T03:19:54;95353.31;;;6.74;100.00
57628;BME280;43451;49.060;10.616;2023-04-01T03:22:20;95349.47;;;6.71;100.00
57628;BME280;43451;49.060;10.616;2023-04-01T03:24:46;95354.97;;;6.61;100.00
57628;BME280;43451;49.060;10.616;2023-04-01T03:27:11;95355.84;;;6.50;100.00
57628;BME280;43451;49.060;10.616;2023-04-01T03:29:37;95356.16;;;6.56;100.00
57628;BME280;43451;49.060;10.616;2023-04-01T03:32:02;95368.81;;;6.66;100.00
57628;BME280;43451;49.060;10.616;2023-04-01T03:34:27;95372.28;;;6.67;100.00
57628;BME280;43451;49.060;10.616;2023-04-01T03:36:53;95366.50;;;6.65;100.00
57628;BME280;43451;49.060;10.616;2023-04-01T03:39:18;95368.53;;;6.54;100.00
57628;BME280;43451;49.060;10.616;2023-04-01T03:44:11;95381.81;;;6.75;100.00
57628;BME280;43451;49.060;10.616;2023-04-01T03:46:37;95376.13;;;6.66;100.00
57628;BME280;43451;49.060;10.616;2023-04-01T03:49:02;95367.41;;;6.47;100.00
57628;BME280;43451;49.060;10.616;2023-04-01T03:51:28;95375.88;;;6.49;100.00
57628;BME280;43451;49.060;10.616;2023-04-01T03:53:53;95380.78;;;6.62;100.00
57628;BME280;43451;49.060;10.616;2023-04-01T03:56:18;95373.56;;;6.48;100.00
57628;BME280;43451;49.060;10.616;2023-04-01T03:58:44;95369.25;;;6.58;100.00
57628;BME280;43451;49.060;10.616;2023-04-01T04:01:13;95359.25;;;6.55;100.00
57628;BME280;43451;49.060;10.616;2023-04-01T04:03:38;95382.81;;;6.50;100.00
57628;BME280;43451;49.060;10.616;2023-04-01T04:06:04;95372.00;;;6.54;100.00
57628;BME280;43451;49.060;10.616;2023-04-01T04:08:29;95367.88;;;6.39;100.00
57628;BME280;43451;49.060;10.616;2023-04-01T04:10:55;95367.88;;;6.39;100.00
57628;BME280;43451;49.060;10.616;2023-04-01T04:13:21;95368.22;;;6.44;100.00
57628;BME280;43451;49.060;10.616;2023-04-01T04:15:46;95372.44;;;6.45;100.00
57628;BME280;43451;49.060;10.616;2023-04-01T04:18:11;95378.59;;;6.46;100.00
57628;BME280;43451;49.060;10.616;2023-04-01T04:20:42;95392.00;;;6.60;100.00
57628;BME280;43451;49.060;10.616;2023-04-01T04:23:08;95391.88;;;6.71;100.00
57628;BME280;43451;49.060;10.616;2023-04-01T04:25:33;95386.50;;;6.71;100.00
57628;BME280;43451;49.060;10.616;2023-04-01T04:27:58;95382.59;;;6.76;100.00
57628;BME280;43451;49.060;10.616;2023-04-01T04:30:24;95382.66;;;6.68;100.00
57628;BME280;43451;49.060;10.616;2023-04-01T04:32:49;95382.19;;;6.77;100.00
57628;BME280;43451;49.060;10.616;2023-04-01T04:35:15;95394.81;;;6.87;100.00
57628;BME280;43451;49.060;10.616;2023-04-01T04:37:40;95379.50;;;6.77;100.00
57628;BME280;43451;49.060;10.616;2023-04-01T04:40:05;95374.53;;;6.72;100.00
57628;BME280;43451;49.060;10.616;2023-04-01T04:42:31;95388.81;;;6.72;100.00
57628;BME280;43451;49.060;10.616;2023-04-01T04:44:56;95387.28;;;6.68;100.00
57628;BME280;43451;49.060;10.616;2023-04-01T04:47:22;95381.78;;;6.82;100.00
57628;BME280;43451;49.060;10.616;2023-04-01T04:49:47;95369.19;;;6.65;100.00
57628;BME280;43451;49.060;10.616;2023-04-01T04:52:12;95368.09;;;6.59;100.00
57628;BME280;43451;49.060;10.616;2023-04-01T04:54:38;95371.88;;;6.65;100.00
57628;BME280;43451;49.060;10.616;2023-04-01T04:57:03;95366.13;;;6.63;100.00
57628;BME280;43451;49.060;10.616;2023-04-01T04:59:28;95375.84;;;6.53;100.00
57628;BME280;43451;49.060;10.616;2023-04-01T05:01:54;95367.28;;;6.62;100.00
57628;BME280;43451;49.060;10.616;2023-04-01T05:04:19;95371.66;;;6.48;100.00
57628;BME280;43451;49.060;10.616;2023-04-01T05:06:44;95374.31;;;6.52;100.00
57628;BME280;43451;49.060;10.616;2023-04-01T05:09:10;95370.88;;;6.48;100.00
57628;BME280;43451;49.060;10.616;2023-04-01T05:11:35;95361.91;;;6.62;100.00
57628;BME280;43451;49.060;10.616;2023-04-01T05:14:00;95362.63;;;6.66;100.00
57628;BME280;43451;49.060;10.616;2023-04-01T05:16:26;95367.59;;;6.71;100.00
57628;BME280;43451;49.060;10.616;2023-04-01T05:18:51;95367.50;;;6.82;100.00
57628;BME280;43451;49.060;10.616;2023-04-01T05:21:16;95366.88;;;6.67;100.00
57628;BME280;43451;49.060;10.616;2023-04-01T05:23:42;95370.63;;;6.77;100.00
57628;BME280;43451;49.060;10.616;2023-04-01T05:26:09;95375.94;;;6.87;100.00
57628;BME280;43451;49.060;10.616;2023-04-01T05:28:34;95364.25;;;6.97;100.00
57628;BME280;43451;49.060;10.616;2023-04-01T05:31:00;95362.44;;;6.87;100.00
57628;BME280;43451;49.060;10.616;2023-04-01T05:33:26;95360.09;;;6.89;100.00
57628;BME280;43451;49.060;10.616;2023-04-01T05:35:52;95363.59;;;6.86;100.00
57628;BME280;43451;49.060;10.616;2023-04-01T05:38:17;95359.72;;;6.87;100.00
57628;BME280;43451;49.060;10.616;2023-04-01T05:40:43;95375.91;;;6.91;100.00
57628;BME280;43451;49.060;10.616;2023-04-01T05:43:08;95365.84;;;6.95;100.00
57628;BME280;43451;49.060;10.616;2023-04-01T05:45:33;95366.16;;;7.04;100.00
57628;BME280;43451;49.060;10.616;2023-04-01T05:47:59;95374.66;;;6.99;100.00
57628;BME280;43451;49.060;10.616;2023-04-01T05:50:24;95369.94;;;7.07;100.00
57628;BME280;43451;49.060;10.616;2023-04-01T05:52:50;95369.81;;;7.21;100.00
57628;BME280;43451;49.060;10.616;2023-04-01T05:55:15;95370.53;;;7.25;100.00
57628;BME280;43451;49.060;10.616;2023-04-01T05:57:41;95369.84;;;7.17;100.00
57628;BME280;43451;49.060;10.616;2023-04-01T06:00:07;95369.81;;;7.21;100.00
57628;BME280;43451;49.060;10.616;2023-04-01T06:02:33;95367.19;;;7.14;100.00
57628;BME280;43451;49.060;10.616;2023-04-01T06:05:41;95360.56;;;7.18;100.00
57628;BME280;43451;49.060;10.616;2023-04-01T06:07:47;95345.88;;;7.23;100.00
57628;BME280;43451;49.060;10.616;2023-04-01T06:10:21;95377.53;;;7.19;100.00
57628;BME280;43451;49.060;10.616;2023-04-01T06:15:34;95375.31;;;7.14;100.00
57628;BME280;43451;49.060;10.616;2023-04-01T06:33:26;95351.47;;;7.70;100.00
57628;BME280;43451;49.060;10.616;2023-04-01T06:51:23;95379.06;;;8.16;100.00
57628;BME280;43451;49.060;10.616;2023-04-01T06:56:19;95370.50;;;8.48;98.23
57628;BME280;43451;49.060;10.616;2023-04-01T06:58:46;95365.53;;;8.43;100.00
57628;BME280;43451;49.060;10.616;2023-04-01T07:01:16;95349.84;;;8.57;98.55
57628;BME280;43451;49.060;10.616;2023-04-01T07:03:44;95344.84;;;8.56;97.79
57628;BME280;43451;49.060;10.616;2023-04-01T07:06:13;95341.88;;;8.47;99.27
57628;BME280;43451;49.060;10.616;2023-04-01T07:08:40;95338.31;;;8.77;98.67
57628;BME280;43451;49.060;10.616;2023-04-01T07:11:14;95340.25;;;8.53;100.00
57628;BME280;43451;49.060;10.616;2023-04-01T07:13:50;95345.63;;;8.56;100.00
57628;BME280;43451;49.060;10.616;2023-04-01T07:16:30;95336.06;;;8.48;97.78
57628;BME280;43451;49.060;10.616;2023-04-01T07:21:30;95339.00;;;8.81;95.39
57628;BME280;43451;49.060;10.616;2023-04-01T07:24:01;95339.66;;;8.89;94.25
57628;BME280;43451;49.060;10.616;2023-04-01T07:26:29;95337.03;;;9.05;95.56
57628;BME280;43451;49.060;10.616;2023-04-01T07:28:55;95335.63;;;8.97;96.56
57628;BME280;43451;49.060;10.616;2023-04-01T07:33:54;95326.66;;;9.00;100.00
57628;BME280;43451;49.060;10.616;2023-04-01T07:36:24;95336.22;;;9.08;98.10
57628;BME280;43451;49.060;10.616;2023-04-01T07:38:56;95337.03;;;9.05;95.36
57628;BME280;43451;49.060;10.616;2023-04-01T07:42:09;95332.91;;;8.97;100.00
57628;BME280;43451;49.060;10.616;2023-04-01T07:46:49;95339.25;;;9.10;94.55
57628;BME280;43451;49.060;10.616;2023-04-01T07:51:53;95357.13;;;9.07;91.96
57628;BME280;43451;49.060;10.616;2023-04-01T07:54:24;95343.28;;;9.02;93.04
57628;BME280;43451;49.060;10.616;2023-04-01T07:59:27;95348.63;;;9.05;93.08
57628;BME280;43451;49.060;10.616;2023-04-01T08:02:21;95352.59;;;9.01;95.66
57628;BME280;43451;49.060;10.616;2023-04-01T08:07:15;95349.31;;;9.10;95.67
57628;BME280;43451;49.060;10.616;2023-04-01T08:09:53;95354.69;;;9.13;97.64
57628;BME280;43451;49.060;10.616;2023-04-01T08:12:24;95357.88;;;9.08;97.79
57628;BME280;43451;49.060;10.616;2023-04-01T08:14:54;95363.59;;;9.14;99.00
57628;BME280;43451;49.060;10.616;2023-04-01T08:19:56;95366.84;;;9.25;96.66
57628;BME280;43451;49.060;10.616;2023-04-01T08:22:36;95359.41;;;9.09;96.25
57628;BME280;43451;49.060;10.616;2023-04-01T08:25:04;95359.41;;;9.09;96.26
57628;BME280;43451;49.060;10.616;2023-04-01T08:27:44;95359.91;;;9.24;92.86
57628;BME280;43451;49.060;10.616;2023-04-01T08:33:05;95370.81;;;9.20;98.31
57628;BME280;43451;49.060;10.616;2023-04-01T08:38:06;95362.81;;;9.13;100.00
57628;BME280;43451;49.060;10.616;2023-04-01T09:01:22;95382.09;;;8.95;100.00
57628;BME280;43451;49.060;10.616;2023-04-01T09:06:21;95380.81;;;8.80;100.00
57628;BME280;43451;49.060;10.616;2023-04-01T09:11:59;95385.03;;;8.57;100.00
57628;BME280;43451;49.060;10.616;2023-04-01T09:27:33;95373.69;;;8.66;100.00
57628;BME280;43451;49.060;10.616;2023-04-01T09:37:35;95381.34;;;8.71;100.00
57628;BME280;43451;49.060;10.616;2023-04-01T09:40:15;95391.91;;;8.62;100.00
57628;BME280;43451;49.060;10.616;2023-04-01T09:48:14;95397.63;;;8.44;100.00
57628;BME280;43451;49.060;10.616;2023-04-01T09:53:20;95396.88;;;8.44;100.00
57628;BME280;43451;49.060;10.616;2023-04-01T10:01:08;95394.56;;;8.42;100.00
57628;BME280;43451;49.060;10.616;2023-04-01T10:14:44;95385.09;;;8.54;100.00
57628;BME280;43451;49.060;10.616;2023-04-01T10:17:30;95380.38;;;8.58;100.00
57628;BME280;43451;49.060;10.616;2023-04-01T10:20:12;95373.94;;;8.75;100.00
57628;BME280;43451;49.060;10.616;2023-04-01T10:33:12;95395.41;;;8.86;100.00
57628;BME280;43451;49.060;10.616;2023-04-01T10:43:57;95392.81;;;8.28;100.00
57628;BME280;43451;49.060;10.616;2023-04-01T11:10:53;95379.56;;;8.84;100.00
57628;BME280;43451;49.060;10.616;2023-04-01T11:26:09;95373.53;;;9.20;100.00
57628;BME280;43451;49.060;10.616;2023-04-01T11:28:54;95377.97;;;9.11;100.00
57628;BME280;43451;49.060;10.616;2023-04-01T11:42:28;95387.41;;;9.22;100.00
57628;BME280;43451;49.060;10.616;2023-04-01T11:45:18;95402.81;;;9.05;100.00
57628;BME280;43451;49.060;10.616;2023-04-01T11:47:58;95389.00;;;8.76;100.00
57628;BME280;43451;49.060;10.616;2023-04-01T11:50:39;95382.63;;;8.63;100.00
57628;BME280;43451;49.060;10.616;2023-04-01T11:58:31;95397.09;;;8.53;100.00
57628;BME280;43451;49.060;10.616;2023-04-01T12:14:02;95411.78;;;9.02;100.00
57628;BME280;43451;49.060;10.616;2023-04-01T12:16:48;95405.00;;;8.67;100.00
57628;BME280;43451;49.060;10.616;2023-04-01T12:24:52;95418.78;;;9.00;100.00
57628;BME280;43451;49.060;10.616;2023-04-01T12:27:31;95414.13;;;8.77;100.00
57628;BME280;43451;49.060;10.616;2023-04-01T12:32:38;95415.00;;;8.70;100.00
57628;BME280;43451;49.060;10.616;2023-04-01T12:45:28;95413.63;;;8.58;100.00
57628;BME280;43451;49.060;10.616;2023-04-01T12:53:09;95418.25;;;8.85;100.00
57628;BME280;43451;49.060;10.616;2023-04-01T12:55:40;95418.19;;;9.12;100.00
57628;BME280;43451;49.060;10.616;2023-04-01T12:58:33;95407.44;;;9.28;100.00
57628;BME280;43451;49.060;10.616;2023-04-01T13:03:40;95409.00;;;9.49;100.00
57628;BME280;43451;49.060;10.616;2023-04-01T13:21:54;95427.19;;;9.05;100.00
57628;BME280;43451;49.060;10.616;2023-04-01T13:27:01;95434.44;;;9.12;100.00
57628;BME280;43451;49.060;10.616;2023-04-01T13:29:52;95434.28;;;8.76;100.00
57628;BME280;43451;49.060;10.616;2023-04-01T13:32:23;95438.84;;;9.02;100.00
57628;BME280;43451;49.060;10.616;2023-04-01T13:43:01;95438.91;;;8.75;100.00
57628;BME280;43451;49.060;10.616;2023-04-01T14:06:23;95450.22;;;8.70;100.00
57628;BME280;43451;49.060;10.616;2023-04-01T14:09:04;95457.09;;;8.75;100.00
57628;BME280;43451;49.060;10.616;2023-04-01T14:14:13;95452.09;;;8.73;100.00
57628;BME280;43451;49.060;10.616;2023-04-01T14:19:39;95459.41;;;8.76;100.00
57628;BME280;43451;49.060;10.616;2023-04-01T14:30:43;95461.75;;;9.21;100.00
57628;BME280;43451;49.060;10.616;2023-04-01T14:43:42;95472.59;;;9.21;100.00
57628;BME280;43451;49.060;10.616;2023-04-01T14:46:28;95457.69;;;9.10;100.00
57628;BME280;43451;49.060;10.616;2023-04-01T14:48:59;95458.66;;;9.23;100.00
57628;BME280;43451;49.060;10.616;2023-04-01T14:51:33;95465.63;;;8.97;100.00
57628;BME280;43451;49.060;10.616;2023-04-01T14:54:12;95474.50;;;8.74;100.00
57628;BME280;43451;49.060;10.616;2023-04-01T14:56:43;95476.72;;;8.82;100.00
57628;BME280;43451;49.060;10.616;2023-04-01T14:59:10;95477.41;;;8.87;100.00
57628;BME280;43451;49.060;10.616;2023-04-01T15:01:46;95471.94;;;8.90;100.00
57628;BME280;43451;49.060;10.616;2023-04-01T15:14:38;95489.13;;;8.80;100.00
57628;BME280;43451;49.060;10.616;2023-04-01T15:25:03;95498.06;;;9.04;100.00
57628;BME280;43451;49.060;10.616;2023-04-01T15:38:07;95507.56;;;8.62;100.00
57628;BME280;43451;49.060;10.616;2023-04-01T15:56:36;95509.44;;;8.65;100.00
57628;BME280;43451;49.060;10.616;2023-04-01T16:12:52;95508.69;;;8.33;100.00
57628;BME280;43451;49.060;10.616;2023-04-01T16:14:53;95524.56;;;8.31;100.00
57628;BME280;43451;49.060;10.616;2023-04-01T16:19:59;95517.03;;;8.16;100.00
57628;BME280;43451;49.060;10.616;2023-04-01T16:22:30;95514.81;;;8.07;100.00
57628;BME280;43451;49.060;10.616;2023-04-01T16:32:44;95528.75;;;8.02;100.00
57628;BME280;43451;49.060;10.616;2023-04-01T16:42:55;95536.03;;;8.08;100.00
57628;BME280;43451;49.060;10.616;2023-04-01T16:46:06;95535.03;;;7.95;100.00
57628;BME280;43451;49.060;10.616;2023-04-01T16:48:14;95542.34;;;7.98;100.00
57628;BME280;43451;49.060;10.616;2023-04-01T16:50:48;95546.25;;;7.94;100.00
57628;BME280;43451;49.060;10.616;2023-04-01T16:53:17;95537.28;;;8.00;100.00
57628;BME280;43451;49.060;10.616;2023-04-01T16:55:50;95546.41;;;8.13;100.00
57628;BME280;43451;49.060;10.616;2023-04-01T16:58:27;95547.03;;;8.28;100.00
57628;BME280;43451;49.060;10.616;2023-04-01T17:01:19;95558.56;;;8.32;100.00
57628;BME280;43451;49.060;10.616;2023-04-01T17:03:49;95555.44;;;8.37;100.00
57628;BME280;43451;49.060;10.616;2023-04-01T17:06:19;95553.88;;;8.36;100.00
57628;BME280;43451;49.060;10.616;2023-04-01T17:11:26;95575.53;;;8.36;100.00
57628;BME280;43451;49.060;10.616;2023-04-01T17:29:46;95586.28;;;8.09;100.00
57628;BME280;43451;49.060;10.616;2023-04-01T17:32:24;95579.72;;;8.07;100.00
57628;BME280;43451;49.060;10.616;2023-04-01T17:37:32;95579.44;;;7.98;100.00
57628;BME280;43451;49.060;10.616;2023-04-01T17:44:59;95578.66;;;7.97;100.00
57628;BME280;43451;49.060;10.616;2023-04-01T17:50:24;95593.47;;;7.85;100.00
57628;BME280;43451;49.060;10.616;2023-04-01T17:58:20;95605.25;;;7.64;100.00
57628;BME280;43451;49.060;10.616;2023-04-01T18:16:43;95621.44;;;7.68;100.00
57628;BME280;43451;49.060;10.616;2023-04-01T18:21:46;95622.53;;;7.74;100.00
57628;BME280;43451;49.060;10.616;2023-04-01T18:26:38;95626.28;;;7.87;100.00
57628;BME280;43451;49.060;10.616;2023-04-01T18:29:26;95629.28;;;7.97;100.00
57628;BME280;43451;49.060;10.616;2023-04-01T18:37:31;95631.94;;;7.59;100.00
57628;BME280;43451;49.060;10.616;2023-04-01T18:42:31;95645.97;;;7.39;100.00
57628;BME280;43451;49.060;10.616;2023-04-01T18:47:43;95654.81;;;7.43;100.00
57628;BME280;43451;49.060;10.616;2023-04-01T18:52:37;95654.53;;;7.31;100.00
57628;BME280;43451;49.060;10.616;2023-04-01T19:00:04;95670.72;;;7.31;100.00
57628;BME280;43451;49.060;10.616;2023-04-01T19:02:43;95678.09;;;7.27;100.00
57628;BME280;43451;49.060;10.616;2023-04-01T19:05:18;95684.50;;;7.51;100.00
57628;BME280;43451;49.060;10.616;2023-04-01T19:07:46;95686.38;;;7.57;100.00
57628;BME280;43451;49.060;10.616;2023-04-01T19:15:13;95683.38;;;7.44;100.00
57628;BME280;43451;49.060;10.616;2023-04-01T19:20:38;95686.06;;;7.44;100.00
57628;BME280;43451;49.060;10.616;2023-04-01T19:23:31;95687.28;;;7.36;100.00
57628;BME280;43451;49.060;10.616;2023-04-01T19:26:00;95686.91;;;7.34;100.00
57628;BME280;43451;49.060;10.616;2023-04-01T19:38:39;95697.47;;;7.04;100.00
57628;BME280;43451;49.060;10.616;2023-04-01T19:41:15;95699.84;;;6.94;100.00
57628;BME280;43451;49.060;10.616;2023-04-01T19:49:05;95705.25;;;6.98;100.00
57628;BME280;43451;49.060;10.616;2023-04-01T20:04:33;95716.00;;;7.09;100.00
57628;BME280;43451;49.060;10.616;2023-04-01T20:14:28;95729.75;;;7.32;100.00
57628;BME280;43451;49.060;10.616;2023-04-01T20:17:01;95727.41;;;7.38;100.00
57628;BME280;43451;49.060;10.616;2023-04-01T20:19:43;95733.56;;;7.46;100.00
57628;BME280;43451;49.060;10.616;2023-04-01T20:25:06;95736.25;;;7.42;100.00
57628;BME280;43451;49.060;10.616;2023-04-01T20:27:37;95736.78;;;7.19;100.00
57628;BME280;43451;49.060;10.616;2023-04-01T20:35:25;95746.44;;;7.16;100.00
57628;BME280;43451;49.060;10.616;2023-04-01T20:51:31;95743.44;;;6.93;100.00
57628;BME280;43451;49.060;10.616;2023-04-01T21:12:39;95759.59;;;7.11;100.00
57628;BME280;43451;49.060;10.616;2023-04-01T21:15:18;95759.53;;;7.21;100.00
57628;BME280;43451;49.060;10.616;2023-04-01T21:22:35;95774.22;;;7.17;100.00
57628;BME280;43451;49.060;10.616;2023-04-01T21:28:00;95778.03;;;7.30;100.00
57628;BME280;43451;49.060;10.616;2023-04-01T21:41:50;95792.69;;;7.29;100.00
57628;BME280;43451;49.060;10.616;2023-04-01T21:52:03;95808.94;;;7.15;100.00
57628;BME280;43451;49.060;10.616;2023-04-01T22:03:19;95811.28;;;7.06;100.00
57628;BME280;43451;49.060;10.616;2023-04-01T22:05:28;95819.00;;;7.14;100.00
57628;BME280;43451;49.060;10.616;2023-04-01T22:08:08;95814.00;;;7.06;100.00
57628;BME280;43451;49.060;10.616;2023-04-01T22:13:04;95820.56;;;6.97;100.00
57628;BME280;43451;49.060;10.616;2023-04-01T22:18:30;95814.41;;;6.93;100.00
57628;BME280;43451;49.060;10.616;2023-04-01T22:28:44;95821.38;;;6.87;100.00
57628;BME280;43451;49.060;10.616;2023-04-01T22:31:14;95819.44;;;6.91;100.00
57628;BME280;43451;49.060;10.616;2023-04-01T22:33:55;95822.53;;;6.83;100.00
57628;BME280;43451;49.060;10.616;2023-04-01T22:41:24;95821.38;;;6.84;100.00
57628;BME280;43451;49.060;10.616;2023-04-01T22:43:54;95834.50;;;6.78;100.00
57628;BME280;43451;49.060;10.616;2023-04-01T22:51:28;95831.00;;;6.81;100.00
57628;BME280;43451;49.060;10.616;2023-04-01T22:54:04;95838.34;;;6.84;100.00
57628;BME280;43451;49.060;10.616;2023-04-01T22:56:36;95838.34;;;6.91;100.00
57628;BME280;43451;49.060;10.616;2023-04-01T22:59:10;95836.78;;;6.94;100.00
57628;BME280;43451;49.060;10.616;2023-04-01T23:01:40;95842.91;;;7.09;100.00
57628;BME280;43451;49.060;10.616;2023-04-01T23:04:08;95848.31;;;7.12;100.00
57628;BME280;43451;49.060;10.616;2023-04-01T23:06:38;95845.59;;;7.19;100.00
57628;BME280;43451;49.060;10.616;2023-04-01T23:17:02;95858.28;;;7.26;100.00
57628;BME280;43451;49.060;10.616;2023-04-01T23:24:44;95864.47;;;7.30;100.00
57628;BME280;43451;49.060;10.616;2023-04-01T23:29:50;95874.84;;;7.46;100.00
57628;BME280;43451;49.060;10.616;2023-04-01T23:32:17;95878.72;;;7.49;100.00
57628;BME280;43451;49.060;10.616;2023-04-01T23:34:47;95879.13;;;7.29;100.00
57628;BME280;43451;49.060;10.616;2023-04-01T23:37:14;95882.22;;;7.28;100.00
57628;BME280;43451;49.060;10.616;2023-04-01T23:39:42;95884.94;;;7.13;100.00
57628;BME280;43451;49.060;10.616;2023-04-01T23:44:37;95889.22;;;7.04;100.00
57628;BME280;43451;49.060;10.616;2023-04-01T23:47:03;95897.72;;;7.06;100.00
57628;BME280;43451;49.060;10.616;2023-04-01T23:49:33;95895.38;;;7.01;100.00
57628;BME280;43451;49.060;10.616;2023-04-01T23:52:03;95893.84;;;7.17;100.00
57628;BME280;43451;49.060;10.616;2023-04-01T23:54:30;95896.16;;;6.97;100.00